METAR Data
IDs: Format: Raw Decoded Include TAF

Data at: 1013 UTC 18 Jan 2022

KD50 180955Z AUTO 31019KT 10SM FEW070 BKN090 BKN120 01/01 A2939 RMK AO2
KD50 180935Z AUTO 30017KT 10SM FEW050 SCT075 BKN090 02/01 A2938 RMK AO2
KD50 180915Z AUTO 29018KT 10SM 02/01 A2938 RMK AO2
KD50 180855Z AUTO 28014KT 10SM FEW075 OVC095 03/01 A2937 RMK AO2
KD50 180835Z AUTO 26012G17KT 10SM FEW060 SCT075 OVC090 03/01 A2936 RMK AO2
KD50 180815Z AUTO 23009KT 10SM OVC090 00/00 A2935 RMK AO2
KD50 180755Z AUTO 23011KT 10SM OVC100 00/00 A2935 RMK AO2
KD50 180735Z AUTO 22011KT 10SM FEW075 OVC095 M00/M00 A2935 RMK AO2
KD50 180715Z AUTO 22011KT 10SM BKN080 OVC090 M01/M01 A2935 RMK AO2
KD50 180655Z AUTO 20010KT 10SM OVC080 M02/M01 A2935 RMK AO2
KD50 180635Z AUTO 21011KT 10SM BKN080 OVC095 M02/M02 A2936 RMK AO2
KD50 180615Z AUTO 21012KT 10SM SCT075 OVC090 M02/M02 A2937 RMK AO2
KD50 180555Z AUTO 21010KT 10SM BKN075 OVC095 M02/M02 A2938 RMK AO2
KD50 180535Z AUTO 21014KT 10SM FEW075 OVC095 M02/M02 A2938 RMK AO2
KD50 180515Z AUTO 21013KT 10SM SCT075 BKN100 BKN120 M03/M03 A2938 RMK AO2
KD50 180455Z AUTO 21012KT 10SM FEW080 BKN095 M04/M04 A2940 RMK AO2
KD50 180435Z AUTO 21013KT 10SM SCT080 OVC095 M03/M03 A2941 RMK AO2
KD50 180415Z AUTO 20013KT 10SM OVC075 M03/M03 A2942 RMK AO2
KD50 180355Z AUTO 20011KT 10SM BKN075 BKN085 OVC110 M04/M04 A2943 RMK AO2
KD50 180335Z AUTO 20008KT 10SM FEW085 OVC110 M05/M05 A2945 RMK AO2
KD50 180315Z AUTO 18006KT 10SM SCT110 M05/M05 A2946 RMK AO2
KD50 180255Z AUTO 14007KT 9SM CLR M06/M06 A2947 RMK AO2
KD50 180235Z AUTO 14004KT 7SM CLR M07/M07 A2950 RMK AO2
KD50 180215Z AUTO 00000KT 6SM BR CLR M08/M08 A2951 RMK AO2
KD50 180155Z AUTO 17006KT 7SM CLR M07/M06 A2950 RMK AO2
KD50 180135Z AUTO 13007KT 7SM CLR M07/M06 A2952 RMK AO2
KD50 180115Z AUTO 12007KT 7SM CLR M06/M06 A2953 RMK AO2
KD50 180055Z AUTO 12007KT 8SM CLR M06/M06 A2955 RMK AO2
KD50 180035Z AUTO 12006KT 9SM CLR M06/M05 A2956 RMK AO2
KD50 180015Z AUTO 08006KT 10SM SCT110 M05/M05 A2957 RMK AO2
KD50 172355Z AUTO 05005KT 8SM BKN110 M04/M04 A2958 RMK AO2
KD50 172335Z AUTO 11003KT 9SM OVC110 M02/M02 A2959 RMK AO2
KD50 172315Z AUTO 12005KT 10SM OVC110 M02/M02 A2958 RMK AO2
KD50 172255Z AUTO 15006KT 10SM OVC110 M01/M01 A2959 RMK AO2
KD50 172235Z AUTO 18005KT 10SM OVC110 M01/M01 A2961 RMK AO2
KD50 172215Z AUTO 17005KT 10SM OVC110 M01/M01 A2961 RMK AO2
KD50 172155Z AUTO 16003KT 10SM OVC110 M01/M01 A2961 RMK AO2
KD50 172135Z AUTO 17004KT 10SM BKN110 M02/M01 A2963 RMK AO2
KD50 172115Z AUTO 15003KT 10SM BKN095 BKN120 M02/M02 A2962 RMK AO2
KD50 172055Z AUTO 19004KT 10SM BKN095 OVC120 M02/M02 A2964 RMK AO2
KD50 172035Z AUTO 19004KT 10SM FEW065 BKN095 BKN120 M02/M02 A2964 RMK AO2
KD50 172015Z AUTO 17004KT 10SM BKN095 BKN120 M01/M01 A2964 RMK AO2
KD50 171955Z AUTO 19007KT 10SM FEW100 SCT120 M02/M02 A2965 RMK AO2
KD50 171935Z AUTO 19007KT 10SM BKN095 M02/M02 A2966 RMK AO2
KD50 171915Z AUTO 18008KT 10SM BKN095 BKN120 M02/M02 A2968 RMK AO2
KD50 171855Z AUTO 20006KT 10SM CLR M02/M02 A2968 RMK AO2
KD50 171835Z AUTO 18003KT 10SM FEW110 M03/M03 A2969 RMK AO2
KD50 171815Z AUTO 00000KT 10SM SCT110 M03/M03 A2970 RMK AO2
KD50 171755Z AUTO 16004KT 9SM SCT110 M03/M03 A2969 RMK AO2
KD50 171735Z AUTO 19003KT 10SM CLR M03/M03 A2970 RMK AO2
KD50 171715Z AUTO 19004KT 10SM CLR M03/M03 A2970 RMK AO2
KD50 171655Z AUTO 18003KT 10SM CLR M04/M04 A2971 RMK AO2
KD50 171635Z AUTO 00000KT 9SM CLR M05/M05 A2970 RMK AO2
KD50 171615Z AUTO 18004KT 10SM CLR M04/M04 A2970 RMK AO2
KD50 171555Z AUTO 20003KT 10SM CLR M07/M07 A2971 RMK AO2
KD50 171535Z AUTO 00000KT 10SM CLR M05/M05 A2970 RMK AO2
KD50 171515Z AUTO 00000KT 10SM BKN075 M05/M05 A2970 RMK AO2
KD50 171455Z AUTO 00000KT 10SM OVC075 M04/M04 A2970 RMK AO2
KD50 171435Z AUTO 06004KT 10SM OVC075 M04/M04 A2969 RMK AO2
KD50 171415Z AUTO 00000KT 10SM OVC075 M05/M04 A2969 RMK AO2
KD50 171355Z AUTO 14005KT 10SM OVC075 M05/M05 A2968 RMK AO2
KD50 171335Z AUTO 00000KT 10SM OVC075 M05/M05 A2971 RMK AO2
KD50 171315Z AUTO 00000KT 10SM OVC075 M05/M05 A2971 RMK AO2
KD50 171255Z AUTO 00000KT 10SM OVC075 M06/M06 A2972 RMK AO2
KD50 171235Z AUTO 17003KT 10SM BKN080 M05/M05 A2971 RMK AO2
KD50 171215Z AUTO 17003KT 10SM SCT070 SCT085 M04/M04 A2970 RMK AO2
KD50 171155Z AUTO 19005KT 10SM OVC070 M04/M04 A2970 RMK AO2
KD50 171135Z AUTO 18004KT 10SM FEW049 BKN070 OVC075 M03/M03 A2970 RMK AO2
KD50 171115Z AUTO 20005KT 10SM FEW041 SCT050 OVC065 M03/M03 A2971 RMK AO2
KD50 171055Z AUTO 20007KT 10SM FEW037 SCT043 OVC070 M03/M03 A2971 RMK AO2
KD50 171035Z AUTO 20006KT 10SM SCT037 BKN055 OVC070 M03/M03 A2972 RMK AO2
KD50 171015Z AUTO 20008KT 10SM FEW036 BKN055 OVC065 M03/M03 A2971 RMK AO2
KD50 170955Z AUTO 20009KT 10SM BKN060 OVC070 M03/M03 A2972 RMK AO2
KD50 170935Z AUTO 20010KT 10SM BKN060 OVC075 M03/M03 A2972 RMK AO2
KD50 170915Z AUTO 21009KT 10SM BKN065 OVC075 M03/M03 A2973 RMK AO2
KD50 170855Z AUTO 21010KT 10SM OVC075 M04/M04 A2973 RMK AO2
KD50 170835Z AUTO 22009KT 10SM BKN080 OVC090 M04/M04 A2975 RMK AO2
KD50 170815Z AUTO 20008KT 10SM FEW044 SCT055 BKN065 M04/M04 A2974 RMK AO2
KD50 170755Z AUTO 20008KT 10SM OVC065 M04/M04 A2975 RMK AO2
KD50 170735Z AUTO 21010KT 10SM BKN070 OVC075 M04/M04 A2977 RMK AO2
KD50 170715Z AUTO 20011KT 10SM OVC075 M04/M04 A2978 RMK AO2
KD50 170655Z AUTO 20012KT 10SM FEW060 OVC075 M04/M04 A2979 RMK AO2
KD50 170635Z AUTO 20012KT 10SM SCT046 BKN055 OVC075 M04/M04 A2980 RMK AO2
KD50 170615Z AUTO 20009KT 10SM SCT047 BKN055 OVC075 M05/M05 A2981 RMK AO2
KD50 170555Z AUTO 19009KT 10SM BKN070 OVC075 M04/M04 A2981 RMK AO2
KD50 170535Z AUTO 22006KT 10SM BKN065 BKN085 BKN120 M03/M03 A2982 RMK AO2
KD50 170515Z AUTO 23008KT 10SM SCT085 SCT120 M04/M03 A2983 RMK AO2
KD50 170455Z AUTO 23009KT 10SM FEW120 M05/M05 A2983 RMK AO2
KD50 170435Z AUTO 21009KT 10SM SCT120 M03/M04 A2984 RMK AO2
KD50 170415Z AUTO 23007KT 10SM BKN120 M03/M04 A2984 RMK AO2
KD50 170355Z AUTO 25010KT 10SM CLR M03/M03 A2984 RMK AO2
KD50 170335Z AUTO 26010KT 10SM CLR M02/M03 A2986 RMK AO2
KD50 170315Z AUTO 27012KT 10SM CLR M02/M03 A2986 RMK AO2
KD50 170255Z AUTO 26013KT 10SM CLR M02/M03 A2987 RMK AO2
KD50 170235Z AUTO 26013KT 10SM CLR M03/M04 A2988 RMK AO2
KD50 170215Z AUTO 25014KT 10SM CLR M02/M04 A2989 RMK AO2
KD50 170155Z AUTO 26015KT 10SM CLR M03/M04 A2989 RMK AO2
KD50 170135Z AUTO 25013KT 10SM CLR M03/M04 A2989 RMK AO2
KD50 170115Z AUTO 26012KT 10SM CLR M03/M03 A2989 RMK AO2
KD50 170055Z AUTO 25013KT 10SM CLR M03/M03 A2989 RMK AO2
KD50 170035Z AUTO 24012KT 10SM CLR M03/M03 A2989 RMK AO2
KD50 170015Z AUTO 25011KT 10SM CLR M03/M04 A2989 RMK AO2
KD50 162355Z AUTO 25013KT 10SM CLR M02/M03 A2991 RMK AO2
KD50 162335Z AUTO 25011KT 10SM CLR M02/M03 A2992 RMK AO2
KD50 162315Z AUTO 25014KT 10SM CLR M01/M03 A2992 RMK AO2
KD50 162255Z AUTO 26013G19KT 10SM CLR M01/M03 A2992 RMK AO2
KD50 162235Z AUTO 24009KT 10SM CLR M02/M03 A2992 RMK AO2
KD50 162215Z AUTO 26009KT 10SM CLR M01/M03 A2993 RMK AO2